createdAt,value
2018-09-27T00:01:38.530Z,7.30
2018-09-27T00:04:07.648Z,7.30
2018-09-27T00:06:36.908Z,7.30
2018-09-27T00:09:06.822Z,7.40
2018-09-27T00:11:36.715Z,7.50
2018-09-27T00:14:06.688Z,7.60
2018-09-27T00:16:35.949Z,7.70
2018-09-27T00:19:05.495Z,7.70
2018-09-27T00:21:34.794Z,7.60
2018-09-27T00:24:04.082Z,7.50
2018-09-27T00:26:33.315Z,7.30
2018-09-27T00:29:02.484Z,7.10
2018-09-27T00:31:34.779Z,7.10
2018-09-27T00:34:04.209Z,7.20
2018-09-27T00:36:33.755Z,7.30
2018-09-27T00:39:03.300Z,7.20
2018-09-27T00:41:32.935Z,7.10
2018-09-27T00:44:02.754Z,7.30
2018-09-27T00:46:31.977Z,7.30
2018-09-27T00:49:01.417Z,7.40
2018-09-27T00:51:30.588Z,7.30
2018-09-27T00:53:59.930Z,7.20
2018-09-27T00:56:28.934Z,7.30
2018-09-27T00:58:59.423Z,7.50
2018-09-27T01:01:28.656Z,7.50
2018-09-27T01:03:57.817Z,7.40
2018-09-27T01:06:26.907Z,7.40
2018-09-27T01:08:56.189Z,7.30
2018-09-27T01:11:25.224Z,7.40
2018-09-27T01:13:54.874Z,7.50
2018-09-27T01:16:23.998Z,7.50
2018-09-27T01:18:54.919Z,7.40
2018-09-27T01:21:24.669Z,7.30
2018-09-27T01:23:53.799Z,7.00
2018-09-27T01:26:22.895Z,6.90
2018-09-27T01:28:51.986Z,6.90
2018-09-27T01:31:21.118Z,6.70
2018-09-27T01:33:50.891Z,6.60
2018-09-27T01:36:20.688Z,6.70
2018-09-27T01:38:50.472Z,6.70
2018-09-27T01:41:19.557Z,6.60
2018-09-27T01:43:49.395Z,6.40
2018-09-27T01:46:19.077Z,6.30
2018-09-27T01:48:49.039Z,6.40
2018-09-27T01:51:18.420Z,6.60
2018-09-27T01:53:48.512Z,6.50
2018-09-27T01:56:18.808Z,6.20
2018-09-27T01:58:49.278Z,6.30
2018-09-27T02:01:18.337Z,6.20
2018-09-27T02:03:51.474Z,6.20
2018-09-27T02:06:22.885Z,6.30
2018-09-27T02:08:51.948Z,6.30
2018-09-27T02:11:22.092Z,6.30
2018-09-27T02:13:52.249Z,6.40
2018-09-27T02:16:21.479Z,6.30
2018-09-27T02:18:50.709Z,6.50
2018-09-27T02:21:20.405Z,6.40
2018-09-27T02:23:50.974Z,6.40
2018-09-27T02:26:20.143Z,6.20
2018-09-27T02:28:49.200Z,6.30
2018-09-27T02:31:18.266Z,6.20
2018-09-27T02:33:47.471Z,6.30
2018-09-27T02:36:16.504Z,6.50
2018-09-27T02:38:47.720Z,6.50
2018-09-27T02:41:16.896Z,6.50
2018-09-27T02:43:46.597Z,6.60
2018-09-27T02:46:16.593Z,6.60
2018-09-27T02:48:46.625Z,6.70
2018-09-27T02:51:15.719Z,6.70
2018-09-27T02:53:45.254Z,6.70
2018-09-27T02:56:14.375Z,6.60
2018-09-27T02:58:45.036Z,6.80
2018-09-27T03:01:14.091Z,6.80
2018-09-27T03:03:45.124Z,6.60
2018-09-27T03:06:14.901Z,6.60
2018-09-27T03:08:44.159Z,6.70
2018-09-27T03:11:13.424Z,6.70
2018-09-27T03:13:42.579Z,6.70
2018-09-27T03:16:12.409Z,6.50
2018-09-27T03:18:41.693Z,6.40
2018-09-27T03:21:10.965Z,6.30
2018-09-27T03:23:40.272Z,6.20
2018-09-27T03:26:09.376Z,6.30
2018-09-27T03:28:38.478Z,6.20
2018-09-27T03:31:07.738Z,6.10
2018-09-27T03:33:36.956Z,5.90
2018-09-27T03:36:06.197Z,5.70
2018-09-27T03:38:35.438Z,5.70
2018-09-27T03:41:04.571Z,5.80
2018-09-27T03:43:33.800Z,5.80
2018-09-27T03:46:02.994Z,5.80
2018-09-27T03:48:33.253Z,5.80
2018-09-27T03:51:02.434Z,5.80
2018-09-27T03:53:32.052Z,5.80
2018-09-27T03:56:01.444Z,5.70
2018-09-27T03:58:30.792Z,5.50
2018-09-27T04:01:00.133Z,5.20
2018-09-27T04:03:29.904Z,5.20
2018-09-27T04:06:01.850Z,5.20
2018-09-27T04:08:31.721Z,5.50
2018-09-27T04:11:01.282Z,5.50
2018-09-27T04:13:30.444Z,5.60
2018-09-27T04:16:00.834Z,5.80
2018-09-27T04:18:30.183Z,5.80
2018-09-27T04:20:59.220Z,5.80
2018-09-27T04:23:28.395Z,5.80
2018-09-27T04:25:57.712Z,5.90
2018-09-27T04:28:26.835Z,6.00
2018-09-27T04:30:56.020Z,6.00
2018-09-27T04:33:25.183Z,6.20
2018-09-27T04:35:54.367Z,6.00
2018-09-27T04:38:23.486Z,6.00
2018-09-27T04:40:52.528Z,6.10
2018-09-27T04:43:22.825Z,6.00
2018-09-27T04:45:53.456Z,6.10
2018-09-27T04:48:23.194Z,5.80
2018-09-27T04:50:52.504Z,5.80
2018-09-27T04:53:21.707Z,6.00
2018-09-27T04:55:51.342Z,5.90
2018-09-27T04:58:21.107Z,5.90
2018-09-27T05:00:50.329Z,6.00
2018-09-27T05:03:19.365Z,6.00
2018-09-27T05:05:48.585Z,6.00
2018-09-27T05:08:18.538Z,6.10
2018-09-27T05:10:47.776Z,6.10
2018-09-27T05:13:18.332Z,5.90
2018-09-27T05:15:51.457Z,5.80
2018-09-27T05:18:21.921Z,5.70
2018-09-27T05:20:50.992Z,5.70
2018-09-27T05:23:20.128Z,5.70
2018-09-27T05:25:50.202Z,5.90
2018-09-27T05:28:19.403Z,6.10
2018-09-27T05:30:49.305Z,6.10
2018-09-27T05:33:18.733Z,6.10
2018-09-27T05:35:47.828Z,6.00
2018-09-27T05:38:16.970Z,5.90
2018-09-27T05:40:46.823Z,5.40
2018-09-27T05:43:16.037Z,5.30
2018-09-27T05:45:45.393Z,5.30
2018-09-27T05:48:14.678Z,5.30
2018-09-27T05:50:43.827Z,5.30
2018-09-27T05:53:13.741Z,5.40
2018-09-27T05:55:42.890Z,5.60
2018-09-27T05:58:13.100Z,6.20
2018-09-27T06:00:42.190Z,7.20
2018-09-27T06:03:11.356Z,8.20
2018-09-27T06:05:40.445Z,9.10
2018-09-27T06:08:09.656Z,10.00
2018-09-27T06:10:39.809Z,10.70
2018-09-27T06:13:09.557Z,11.50
2018-09-27T06:15:39.121Z,12.40
2018-09-27T06:18:08.977Z,13.20
2018-09-27T06:20:38.187Z,13.90
2018-09-27T06:23:07.494Z,14.50
2018-09-27T06:25:36.681Z,15.10
2018-09-27T06:28:07.405Z,14.60
2018-09-27T06:30:36.530Z,14.10
2018-09-27T06:33:05.997Z,14.80
2018-09-27T06:35:36.489Z,15.50
2018-09-27T06:38:05.608Z,16.10
2018-09-27T06:40:35.339Z,16.80
2018-09-27T06:43:06.232Z,17.40
2018-09-27T06:45:35.733Z,17.00
2018-09-27T06:48:05.046Z,16.00
2018-09-27T06:50:34.131Z,16.30
2018-09-27T06:53:03.199Z,16.60
2018-09-27T06:55:32.376Z,16.50
2018-09-27T06:58:02.735Z,16.40
2018-09-27T07:00:32.176Z,16.50
2018-09-27T07:03:01.423Z,16.10
2018-09-27T07:05:32.138Z,16.30
2018-09-27T07:08:01.319Z,16.30
2018-09-27T07:10:30.562Z,16.40
2018-09-27T07:12:59.661Z,16.80
2018-09-27T07:15:29.024Z,17.30
2018-09-27T07:17:58.151Z,17.40
2018-09-27T07:20:27.434Z,17.70
2018-09-27T07:22:56.691Z,17.50
2018-09-27T07:25:25.955Z,17.40
2018-09-27T07:27:56.088Z,17.70
2018-09-27T07:30:25.264Z,18.00
2018-09-27T07:32:55.212Z,18.50
2018-09-27T07:35:24.377Z,19.30
2018-09-27T07:37:54.563Z,19.80
2018-09-27T07:40:23.789Z,20.30
2018-09-27T07:42:53.717Z,20.60
2018-09-27T07:45:24.052Z,20.70
2018-09-27T07:47:53.247Z,21.30
2018-09-27T07:50:22.537Z,21.30
2018-09-27T07:52:51.978Z,21.80
2018-09-27T07:55:21.562Z,22.50
2018-09-27T07:57:50.796Z,22.60
2018-09-27T08:00:21.568Z,22.50
2018-09-27T08:02:54.466Z,22.30
2018-09-27T08:05:25.966Z,22.50
2018-09-27T08:07:56.066Z,22.80
2018-09-27T08:10:25.796Z,23.40
2018-09-27T08:12:54.960Z,23.90
2018-09-27T08:15:24.149Z,24.10
2018-09-27T08:17:54.009Z,24.40
2018-09-27T08:20:23.256Z,24.30
2018-09-27T08:22:54.572Z,24.00
2018-09-27T08:25:23.684Z,24.00
2018-09-27T08:27:52.758Z,24.20
2018-09-27T08:30:21.988Z,24.40
2018-09-27T08:32:51.898Z,23.80
2018-09-27T08:35:21.178Z,23.80
2018-09-27T08:37:50.343Z,23.70
2018-09-27T08:40:19.518Z,24.20
2018-09-27T08:42:48.874Z,24.90
2018-09-27T08:45:18.985Z,25.60
2018-09-27T08:47:47.871Z,26.10
2018-09-27T08:50:17.041Z,26.60
2018-09-27T08:52:46.140Z,26.30
2018-09-27T08:55:15.302Z,25.70
2018-09-27T08:57:44.540Z,25.20
2018-09-27T09:00:13.645Z,24.80
2018-09-27T09:02:43.316Z,25.00
2018-09-27T09:05:13.211Z,25.20
2018-09-27T09:07:43.414Z,25.40
2018-09-27T09:10:12.912Z,26.00
2018-09-27T09:12:42.353Z,26.30
2018-09-27T09:15:11.996Z,26.70
2018-09-27T09:17:42.089Z,26.70
2018-09-27T09:20:12.292Z,27.30
2018-09-27T09:22:41.432Z,27.00
2018-09-27T09:25:10.565Z,27.20
2018-09-27T09:27:40.765Z,27.10
2018-09-27T09:30:10.592Z,27.30
2018-09-27T09:32:39.760Z,27.30
2018-09-27T09:35:09.161Z,27.80
2018-09-27T09:37:38.381Z,27.90
2018-09-27T09:42:59.121Z,28.90
2018-09-27T09:45:28.375Z,28.90
2018-09-27T09:47:57.741Z,29.10
2018-09-27T09:50:26.995Z,29.20
2018-09-27T09:52:56.233Z,29.70
2018-09-27T09:55:25.430Z,29.50
2018-09-27T09:57:55.267Z,29.80
2018-09-27T10:00:24.452Z,30.10
2018-09-27T10:02:54.473Z,29.80
2018-09-27T10:05:23.681Z,29.80
2018-09-27T10:07:53.469Z,29.60
2018-09-27T10:10:22.569Z,29.60
2018-09-27T10:12:51.860Z,29.70
2018-09-27T10:15:21.999Z,29.80
2018-09-27T10:17:51.781Z,29.30
2018-09-27T10:20:23.023Z,29.90
2018-09-27T10:22:52.240Z,29.60
2018-09-27T10:25:21.308Z,29.10
2018-09-27T10:27:50.664Z,28.80
2018-09-27T10:30:20.697Z,28.80
2018-09-27T10:32:50.343Z,29.30
2018-09-27T10:35:21.251Z,29.20
2018-09-27T10:37:51.198Z,29.30
2018-09-27T10:40:20.437Z,29.80
2018-09-27T10:42:50.286Z,30.30
2018-09-27T10:45:20.108Z,31.00
2018-09-27T10:47:49.993Z,30.90
2018-09-27T10:50:19.454Z,31.10
2018-09-27T10:52:49.184Z,31.20
2018-09-27T10:55:18.327Z,31.60
2018-09-27T10:57:47.448Z,31.70
2018-09-27T11:00:18.699Z,31.30
2018-09-27T11:02:48.534Z,31.40
2018-09-27T11:05:17.739Z,31.80
2018-09-27T11:07:46.909Z,32.20
2018-09-27T11:10:16.113Z,33.10
2018-09-27T11:12:45.397Z,33.90
2018-09-27T11:15:16.084Z,34.40
2018-09-27T11:17:45.301Z,34.00
2018-09-27T11:20:14.397Z,33.30
2018-09-27T11:22:43.748Z,33.80
2018-09-27T11:25:12.875Z,34.30
2018-09-27T11:27:42.038Z,34.70
2018-09-27T11:30:16.367Z,35.00
2018-09-27T11:32:46.528Z,34.50
2018-09-27T11:35:18.280Z,33.40
2018-09-27T11:37:47.333Z,33.40
2018-09-27T11:40:16.481Z,33.60
2018-09-27T11:42:46.592Z,33.50
2018-09-27T11:45:15.678Z,33.50
2018-09-27T11:47:45.500Z,33.90
2018-09-27T11:50:14.778Z,34.20
2018-09-27T11:52:45.438Z,34.40
2018-09-27T11:55:15.490Z,33.90
2018-09-27T11:57:44.621Z,34.10
2018-09-27T12:00:14.622Z,34.80
2018-09-27T12:02:43.771Z,35.30
2018-09-27T12:05:12.952Z,34.90
2018-09-27T12:07:43.556Z,34.40
2018-09-27T12:10:12.566Z,34.70
2018-09-27T12:12:41.800Z,34.50
2018-09-27T12:15:11.232Z,34.20
2018-09-27T12:17:40.564Z,33.20
2018-09-27T12:20:10.475Z,33.70
2018-09-27T12:22:39.613Z,33.50
2018-09-27T12:25:08.843Z,34.00
2018-09-27T12:27:38.627Z,33.40
2018-09-27T12:30:07.877Z,33.20
2018-09-27T12:32:38.986Z,33.30
2018-09-27T12:35:08.185Z,33.80
2018-09-27T12:37:38.450Z,34.10
2018-09-27T12:40:07.631Z,34.50
2018-09-27T12:42:36.808Z,34.70
2018-09-27T12:45:06.054Z,34.80
2018-09-27T12:47:35.108Z,33.60
2018-09-27T12:50:04.232Z,33.30
2018-09-27T12:52:34.268Z,33.20
2018-09-27T12:55:03.320Z,33.80
2018-09-27T12:57:33.705Z,34.40
2018-09-27T13:00:02.938Z,33.90
2018-09-27T13:02:32.120Z,33.40
2018-09-27T13:05:02.236Z,33.00
2018-09-27T13:07:31.484Z,33.60
2018-09-27T13:16:48.925Z,34.20
2018-09-27T13:19:19.101Z,35.10
2018-09-27T13:21:48.833Z,35.50
2018-09-27T13:24:18.231Z,35.60
2018-09-27T13:26:48.114Z,35.30
2018-09-27T13:29:18.041Z,35.20
2018-09-27T13:31:47.108Z,35.20
2018-09-27T13:34:16.264Z,35.20
2018-09-27T13:36:45.486Z,34.70
2018-09-27T13:39:14.596Z,33.80
2018-09-27T13:41:44.928Z,34.30
2018-09-27T13:44:14.792Z,34.60
2018-09-27T13:46:44.052Z,34.20
2018-09-27T13:49:13.823Z,34.60
2018-09-27T13:51:42.905Z,34.80
2018-09-27T13:54:12.246Z,33.70
2018-09-27T13:56:41.415Z,33.20
2018-09-27T13:59:40.402Z,33.10
2018-09-27T14:02:19.743Z,33.20
2018-09-27T14:04:53.399Z,33.00
2018-09-27T14:07:26.757Z,32.90
2018-09-27T14:12:27.430Z,32.60
2018-09-27T14:14:56.272Z,32.60
2018-09-27T14:17:25.123Z,32.90
2018-09-27T14:19:53.963Z,33.00
2018-09-27T14:22:22.811Z,33.20
2018-09-27T14:24:51.699Z,33.10
2018-09-27T14:27:20.577Z,33.00
2018-09-27T14:29:49.408Z,32.60
2018-09-27T14:32:18.320Z,33.00
2018-09-27T14:34:47.290Z,33.20
2018-09-27T14:37:16.176Z,33.20
2018-09-27T14:39:44.980Z,33.40
2018-09-27T14:42:13.831Z,32.90
2018-09-27T14:44:42.988Z,32.70
2018-09-27T14:47:12.015Z,32.70
2018-09-27T14:49:40.859Z,32.20
2018-09-27T14:52:09.716Z,32.40
2018-09-27T14:54:38.529Z,32.10
2018-09-27T14:57:07.439Z,32.00
2018-09-27T14:59:36.310Z,32.10
2018-09-27T15:02:05.195Z,32.00
2018-09-27T15:04:34.049Z,32.30
2018-09-27T15:07:02.855Z,31.80
2018-09-27T15:09:32.660Z,32.20
2018-09-27T15:12:01.676Z,32.60
2018-09-27T15:14:30.751Z,32.00
2018-09-27T15:16:59.620Z,32.30
2018-09-27T15:19:28.435Z,32.90
2018-09-27T15:21:58.228Z,33.10
2018-09-27T15:24:27.068Z,33.20
2018-09-27T15:26:55.903Z,32.60
2018-09-27T15:29:24.725Z,32.70
2018-09-27T15:31:53.610Z,32.30
2018-09-27T15:34:22.401Z,31.60
2018-09-27T15:36:51.249Z,31.50
2018-09-27T15:39:20.108Z,31.10
2018-09-27T15:41:48.925Z,30.90
2018-09-27T15:44:17.816Z,30.80
2018-09-27T15:46:46.665Z,30.90
2018-09-27T15:49:15.492Z,31.00
2018-09-27T15:51:44.308Z,30.80
2018-09-27T15:54:13.125Z,30.60
2018-09-27T15:56:41.941Z,30.30
2018-09-27T15:59:10.757Z,30.20
2018-09-27T16:01:39.626Z,30.30
2018-09-27T16:04:08.742Z,30.30
2018-09-27T16:06:37.596Z,30.30
2018-09-27T16:09:08.005Z,30.10
2018-09-27T16:11:36.887Z,30.10
2018-09-27T16:14:05.716Z,30.00
2018-09-27T16:16:34.653Z,30.00
2018-09-27T16:19:03.518Z,29.80
2018-09-27T16:21:32.379Z,29.80
2018-09-27T16:24:01.249Z,29.70
2018-09-27T16:26:30.092Z,29.80
2018-09-27T16:28:58.936Z,29.90
2018-09-27T16:31:27.776Z,29.90
2018-09-27T16:33:56.652Z,29.90
2018-09-27T16:36:25.509Z,29.60
2018-09-27T16:38:54.378Z,29.10
2018-09-27T16:41:23.206Z,28.40
2018-09-27T16:43:52.284Z,27.70
2018-09-27T16:46:21.176Z,27.00
2018-09-27T16:48:50.031Z,26.20
2018-09-27T16:51:18.855Z,25.50
2018-09-27T16:53:47.812Z,24.90
2018-09-27T16:56:16.679Z,24.30
2018-09-27T16:58:45.495Z,23.70
2018-09-27T17:01:14.325Z,23.20
2018-09-27T17:03:43.140Z,22.80
2018-09-27T17:06:12.013Z,22.30
2018-09-27T17:08:40.856Z,21.80
2018-09-27T17:11:09.737Z,21.50
2018-09-27T17:13:38.770Z,21.20
2018-09-27T17:16:07.621Z,20.90
2018-09-27T17:18:36.514Z,20.70
2018-09-27T17:21:05.311Z,20.50
2018-09-27T17:23:34.269Z,20.30
2018-09-27T17:26:03.032Z,20.00
2018-09-27T17:28:31.877Z,19.90
2018-09-27T17:31:00.696Z,19.80
2018-09-27T17:33:29.540Z,19.60
2018-09-27T17:35:59.301Z,19.50
2018-09-27T17:38:28.138Z,19.10
2018-09-27T17:40:56.964Z,18.50
2018-09-27T17:43:26.085Z,18.10
2018-09-27T17:45:54.953Z,17.80
2018-09-27T17:48:23.821Z,17.70
2018-09-27T17:50:52.628Z,17.80
2018-09-27T17:53:21.595Z,17.80
2018-09-27T17:55:50.288Z,17.80
2018-09-27T17:58:19.129Z,17.70
2018-09-27T18:00:47.928Z,17.40
2018-09-27T18:03:16.768Z,17.20
2018-09-27T18:05:45.692Z,17.00
2018-09-27T18:08:14.496Z,16.80
2018-09-27T18:10:43.408Z,16.70
2018-09-27T18:13:12.232Z,16.60
2018-09-27T18:15:41.051Z,16.60
2018-09-27T18:18:09.881Z,16.70
2018-09-27T18:20:38.707Z,16.70
2018-09-27T18:23:07.552Z,16.70
2018-09-27T18:25:36.386Z,16.60
2018-09-27T18:28:05.198Z,16.60
2018-09-27T18:30:34.028Z,16.50
2018-09-27T18:33:02.852Z,16.50
2018-09-27T18:35:32.201Z,16.30
2018-09-27T18:38:01.201Z,16.30
2018-09-27T18:40:29.920Z,16.30
2018-09-27T18:42:58.871Z,16.30
2018-09-27T18:45:27.764Z,16.30
2018-09-27T18:47:56.595Z,16.20
2018-09-27T18:50:25.443Z,15.90
2018-09-27T18:52:54.307Z,15.70
2018-09-27T18:55:23.119Z,15.30
2018-09-27T18:57:51.935Z,15.10
2018-09-27T19:00:20.824Z,15.00
2018-09-27T19:02:49.670Z,14.90
2018-09-27T19:05:18.531Z,14.80
2018-09-27T19:07:47.384Z,14.80
2018-09-27T19:10:16.196Z,14.80
2018-09-27T19:12:45.041Z,14.80
2018-09-27T19:15:13.871Z,14.70
2018-09-27T19:17:42.660Z,14.50
2018-09-27T19:20:11.504Z,14.40
2018-09-27T19:22:40.392Z,14.30
2018-09-27T19:25:09.214Z,14.20
2018-09-27T19:27:38.061Z,14.20
2018-09-27T19:30:06.890Z,14.10
2018-09-27T19:32:35.756Z,13.90
2018-09-27T19:35:04.668Z,13.80
2018-09-27T19:37:33.484Z,13.70
2018-09-27T19:40:02.306Z,13.60
2018-09-27T19:42:31.130Z,13.60
2018-09-27T19:44:59.960Z,13.80
2018-09-27T19:47:28.796Z,14.00
2018-09-27T19:49:57.616Z,14.00
2018-09-27T19:52:26.445Z,14.00
2018-09-27T19:54:55.297Z,13.80
2018-09-27T19:57:24.131Z,13.60
2018-09-27T19:59:52.988Z,13.40
2018-09-27T20:02:21.827Z,13.30
2018-09-27T20:04:50.691Z,13.30
2018-09-27T20:07:19.540Z,13.10
2018-09-27T20:09:48.368Z,12.90
2018-09-27T20:12:17.275Z,12.70
2018-09-27T20:14:46.091Z,12.80
2018-09-27T20:17:14.911Z,12.90
2018-09-27T20:19:43.735Z,13.10
2018-09-27T20:22:12.667Z,13.10
2018-09-27T20:24:41.468Z,13.20
2018-09-27T20:27:10.999Z,13.00
2018-09-27T20:29:40.000Z,12.90
2018-09-27T20:32:09.023Z,12.70
2018-09-27T20:34:37.883Z,12.90
2018-09-27T20:37:06.692Z,12.80
2018-09-27T20:39:35.492Z,12.80
2018-09-27T20:42:04.320Z,12.70
2018-09-27T20:44:33.128Z,12.70
2018-09-27T20:47:01.949Z,12.40
2018-09-27T20:49:30.760Z,12.30
2018-09-27T20:51:59.615Z,12.20
2018-09-27T20:54:28.452Z,12.00
2018-09-27T20:56:57.288Z,12.00
2018-09-27T20:59:26.083Z,12.00
2018-09-27T21:01:54.889Z,11.90
2018-09-27T21:04:23.699Z,11.80
2018-09-27T21:06:52.513Z,11.80
2018-09-27T21:09:21.304Z,11.80
2018-09-27T21:11:50.146Z,11.70
2018-09-27T21:14:18.939Z,11.60
2018-09-27T21:16:47.785Z,11.60
2018-09-27T21:19:16.605Z,11.70
2018-09-27T21:21:45.423Z,11.70
2018-09-27T21:26:42.864Z,11.50
2018-09-27T21:29:11.675Z,11.40
2018-09-27T21:31:40.521Z,11.60
2018-09-27T21:34:09.332Z,11.50
2018-09-27T21:36:38.132Z,11.50
2018-09-27T21:39:07.448Z,11.50
2018-09-27T21:41:36.261Z,11.60
2018-09-27T21:44:05.320Z,11.60
2018-09-27T21:46:34.136Z,11.50
2018-09-27T21:49:02.943Z,11.50
2018-09-27T21:51:31.759Z,11.40
2018-09-27T21:54:00.607Z,11.40
2018-09-27T21:56:29.440Z,11.40
2018-09-27T21:58:58.244Z,11.40
2018-09-27T22:01:27.101Z,11.40
2018-09-27T22:03:55.916Z,11.40
2018-09-27T22:06:24.736Z,11.40
2018-09-27T22:08:53.536Z,11.30
2018-09-27T22:11:22.348Z,11.40
2018-09-27T22:13:51.136Z,11.20
2018-09-27T22:16:19.944Z,11.10
2018-09-27T22:18:48.795Z,10.90
2018-09-27T22:21:17.609Z,10.90
2018-09-27T22:23:46.417Z,11.00
2018-09-27T22:26:15.210Z,11.10
2018-09-27T22:28:46.105Z,11.20
2018-09-27T22:31:14.892Z,11.10
2018-09-27T22:33:43.720Z,11.10
2018-09-27T22:36:12.541Z,11.20
2018-09-27T22:38:41.370Z,11.20
2018-09-27T22:41:10.192Z,11.20
2018-09-27T22:43:39.020Z,11.20
2018-09-27T22:46:07.823Z,10.80
2018-09-27T22:48:36.731Z,11.00
2018-09-27T22:51:05.744Z,10.80
2018-09-27T22:53:34.582Z,10.30
2018-09-27T22:56:03.393Z,10.20
2018-09-27T22:58:32.183Z,10.30
2018-09-27T23:01:01.027Z,10.10
2018-09-27T23:03:29.886Z,10.00
2018-09-27T23:05:58.672Z,10.10
2018-09-27T23:08:27.503Z,10.20
2018-09-27T23:10:56.315Z,10.10
2018-09-27T23:13:25.152Z,10.00
2018-09-27T23:15:53.960Z,9.80
2018-09-27T23:18:22.787Z,9.80
2018-09-27T23:20:51.589Z,9.80
2018-09-27T23:23:20.394Z,9.90
2018-09-27T23:25:49.232Z,10.20
2018-09-27T23:28:18.014Z,10.10
2018-09-27T23:30:46.819Z,10.10
2018-09-27T23:33:15.684Z,10.10
2018-09-27T23:35:44.471Z,9.90
2018-09-27T23:38:13.282Z,10.00
2018-09-27T23:40:42.084Z,10.10
2018-09-27T23:43:10.888Z,10.00
2018-09-27T23:45:39.689Z,10.20
2018-09-27T23:48:08.504Z,10.10
2018-09-27T23:50:37.332Z,10.20
2018-09-27T23:53:06.163Z,10.00
2018-09-27T23:55:34.971Z,10.10
